createdAt,value
2022-09-15T00:01:19.386Z,101172.41
2022-09-15T00:03:46.757Z,101169.53
2022-09-15T00:06:15.458Z,101153.53
2022-09-15T00:08:45.062Z,101141.25
2022-09-15T00:11:18.658Z,101148.16
2022-09-15T00:13:46.499Z,101158.75
2022-09-15T00:16:17.978Z,101162.03
2022-09-15T00:18:46.942Z,101167.84
2022-09-15T00:21:17.811Z,101160.00
2022-09-15T00:23:48.043Z,101164.41
2022-09-15T00:26:17.931Z,101161.03
2022-09-15T00:28:45.974Z,101158.75
2022-09-15T00:31:21.137Z,101156.47
2022-09-15T00:33:50.122Z,101167.00
2022-09-15T00:36:18.355Z,101149.97
2022-09-15T00:38:46.230Z,101154.69
2022-09-15T00:41:15.901Z,101154.69
2022-09-15T00:43:56.975Z,101149.13
2022-09-15T00:46:36.082Z,101159.66
2022-09-15T00:49:21.864Z,101151.84
2022-09-15T00:52:02.133Z,101139.34
2022-09-15T00:54:33.843Z,101147.78
2022-09-15T00:57:05.170Z,101159.22
2022-09-15T00:59:33.034Z,101140.03
2022-09-15T01:02:13.498Z,101149.22
2022-09-15T01:04:42.497Z,101149.81
2022-09-15T01:07:11.579Z,101129.91
2022-09-15T01:10:02.343Z,101145.59
2022-09-15T01:12:30.111Z,101143.41
2022-09-15T01:14:58.450Z,101141.72
2022-09-15T01:17:55.716Z,101149.63
2022-09-15T01:20:52.835Z,101150.81
2022-09-15T01:23:39.810Z,101147.28
2022-09-15T01:26:13.519Z,101146.78
2022-09-15T01:29:07.599Z,101134.84
2022-09-15T01:32:05.353Z,101142.19
2022-09-15T01:38:32.483Z,101128.28
2022-09-15T01:44:44.443Z,101140.91
2022-09-15T01:47:14.497Z,101120.44
2022-09-15T01:50:16.735Z,101136.69
2022-09-15T01:52:46.322Z,101138.56
2022-09-15T01:55:36.181Z,101141.06
2022-09-15T01:58:04.871Z,101132.16
2022-09-15T02:00:37.126Z,101136.28
2022-09-15T02:03:09.241Z,101122.53
2022-09-15T02:05:42.879Z,101141.50
2022-09-15T02:08:31.818Z,101133.66
2022-09-15T02:11:00.268Z,101142.00
2022-09-15T02:13:47.104Z,101140.81
2022-09-15T02:16:20.735Z,101138.19
2022-09-15T02:22:33.887Z,101129.06
2022-09-15T02:25:10.399Z,101138.34
2022-09-15T02:27:45.217Z,101125.84
2022-09-15T02:30:14.495Z,101129.50
2022-09-15T02:33:07.492Z,101149.16
2022-09-15T02:35:35.869Z,101138.19
2022-09-15T02:38:05.153Z,101149.03
2022-09-15T02:40:34.182Z,101141.44
2022-09-15T02:43:03.108Z,101142.19
2022-09-15T02:45:31.815Z,101144.63
2022-09-15T02:48:02.027Z,101149.59
2022-09-15T02:50:30.853Z,101145.03
2022-09-15T02:52:58.637Z,101141.88
2022-09-15T02:55:47.338Z,101146.84
2022-09-15T02:58:15.099Z,101142.06
2022-09-15T03:00:43.366Z,101144.84
2022-09-15T03:03:11.646Z,101129.88
2022-09-15T03:05:39.246Z,101145.19
2022-09-15T03:08:06.940Z,101144.25
2022-09-15T03:10:34.553Z,101140.88
2022-09-15T03:16:43.351Z,101150.56
2022-09-15T03:19:13.156Z,101150.78
2022-09-15T03:21:41.738Z,101151.28
2022-09-15T03:24:10.390Z,101145.97
2022-09-15T03:26:37.999Z,101150.06
2022-09-15T03:29:07.795Z,101143.94
2022-09-15T03:31:35.355Z,101151.16
2022-09-15T03:34:02.851Z,101142.38
2022-09-15T03:36:31.584Z,101147.78
2022-09-15T03:39:00.412Z,101152.47
2022-09-15T03:41:29.943Z,101158.63
2022-09-15T03:43:58.796Z,101151.75
2022-09-15T03:46:26.522Z,101152.84
2022-09-15T03:48:56.058Z,101152.72
2022-09-15T03:51:25.095Z,101151.03
2022-09-15T03:53:54.809Z,101161.41
2022-09-15T03:56:23.307Z,101166.47
2022-09-15T03:58:51.715Z,101150.56
2022-09-15T04:01:22.749Z,101151.16
2022-09-15T04:03:51.505Z,101155.63
2022-09-15T04:06:21.815Z,101150.06
2022-09-15T04:08:52.713Z,101152.38
2022-09-15T04:11:21.549Z,101143.44
2022-09-15T04:13:51.264Z,101152.72
2022-09-15T04:16:21.176Z,101153.56
2022-09-15T04:18:49.072Z,101156.09
2022-09-15T04:21:18.674Z,101154.75
2022-09-15T04:23:46.550Z,101155.09
2022-09-15T04:26:22.084Z,101163.19
2022-09-15T04:28:50.590Z,101158.22
2022-09-15T04:31:18.456Z,101155.22
2022-09-15T04:33:46.177Z,101165.22
2022-09-15T04:36:37.230Z,101156.06
2022-09-15T04:39:07.090Z,101153.28
2022-09-15T04:41:34.703Z,101152.78
2022-09-15T04:44:05.366Z,101162.31
2022-09-15T04:46:33.166Z,101167.63
2022-09-15T04:49:01.416Z,101174.84
2022-09-15T04:51:29.591Z,101152.31
2022-09-15T04:53:57.133Z,101166.03
2022-09-15T04:56:26.364Z,101165.28
2022-09-15T04:59:00.899Z,101170.59
2022-09-15T05:16:32.530Z,101156.16
2022-09-15T05:19:01.317Z,101157.25
2022-09-15T05:21:29.623Z,101164.00
2022-09-15T05:23:57.536Z,101156.06
2022-09-15T05:26:29.226Z,101148.00
2022-09-15T05:28:58.361Z,101141.63
2022-09-15T05:31:28.057Z,101160.53
2022-09-15T05:34:05.999Z,101156.91
2022-09-15T05:36:33.845Z,101166.44
2022-09-15T05:39:02.315Z,101167.16
2022-09-15T05:41:30.659Z,101166.00
2022-09-15T05:43:58.786Z,101169.38
2022-09-15T05:46:27.054Z,101172.41
2022-09-15T05:48:56.166Z,101175.78
2022-09-15T05:51:23.821Z,101182.66
2022-09-15T05:53:51.702Z,101189.66
2022-09-15T06:03:55.342Z,101179.16
2022-09-15T06:06:23.245Z,101183.13
2022-09-15T06:09:04.807Z,101187.13
2022-09-15T06:11:35.252Z,101171.69
2022-09-15T06:14:04.974Z,101176.38
2022-09-15T06:16:34.769Z,101187.00
2022-09-15T06:19:06.754Z,101187.25
2022-09-15T06:21:34.565Z,101210.59
2022-09-15T06:24:07.655Z,101211.09
2022-09-15T06:26:35.453Z,101197.13
2022-09-15T06:29:04.021Z,101217.25
2022-09-15T06:31:33.808Z,101218.34
2022-09-15T06:34:04.619Z,101205.94
2022-09-15T06:36:32.558Z,101228.34
2022-09-15T06:39:00.713Z,101224.97
2022-09-15T06:41:52.621Z,101210.91
2022-09-15T06:44:22.544Z,101227.25
2022-09-15T06:46:53.843Z,101204.09
2022-09-15T06:49:22.983Z,101219.53
2022-09-15T06:51:50.743Z,101220.38
2022-09-15T06:54:18.842Z,101216.16
2022-09-15T06:57:57.168Z,101240.16
2022-09-15T07:00:26.330Z,101241.16
2022-09-15T07:02:54.047Z,101228.34
2022-09-15T07:05:22.670Z,101226.31
2022-09-15T07:07:50.422Z,101238.84
2022-09-15T07:10:20.448Z,101245.13
2022-09-15T07:12:51.808Z,101245.22
2022-09-15T07:15:23.062Z,101250.19
2022-09-15T07:17:56.642Z,101239.94
2022-09-15T07:20:30.754Z,101255.47
2022-09-15T07:23:11.686Z,101260.06
2022-09-15T07:25:39.673Z,101251.97
2022-09-15T07:28:07.787Z,101250.13
2022-09-15T07:30:35.486Z,101241.22
2022-09-15T07:33:07.461Z,101267.84
2022-09-15T07:35:35.273Z,101253.34
2022-09-15T07:38:03.714Z,101242.00
2022-09-15T07:40:32.804Z,101258.81
2022-09-15T07:43:01.639Z,101254.09
2022-09-15T07:45:32.822Z,101248.41
2022-09-15T07:48:00.571Z,101238.06
2022-09-15T07:50:30.694Z,101255.84
2022-09-15T07:53:26.954Z,101257.44
2022-09-15T07:55:56.213Z,101247.72
2022-09-15T07:58:27.369Z,101258.78
2022-09-15T08:00:55.085Z,101264.94
2022-09-15T08:03:24.745Z,101247.06
2022-09-15T08:06:00.276Z,101256.59
2022-09-15T08:08:30.988Z,101261.38
2022-09-15T08:11:00.673Z,101266.75
2022-09-15T08:13:30.974Z,101248.88
2022-09-15T08:16:05.820Z,101251.56
2022-09-15T08:18:37.017Z,101257.72
2022-09-15T09:00:39.322Z,101272.88
2022-09-15T09:07:02.207Z,101282.13
2022-09-15T09:09:57.740Z,101286.72
2022-09-15T09:13:16.953Z,101292.75
2022-09-15T09:16:53.941Z,101286.19
2022-09-15T09:19:36.833Z,101284.03
2022-09-15T09:22:29.162Z,101287.72
2022-09-15T09:27:50.901Z,101281.34
2022-09-15T09:33:24.541Z,101303.81
2022-09-15T09:35:59.760Z,101305.50
2022-09-15T09:41:29.441Z,101312.22
2022-09-15T09:44:09.912Z,101306.59
2022-09-15T09:46:38.527Z,101312.75
2022-09-15T09:49:29.713Z,101300.41
2022-09-15T09:52:06.173Z,101314.63
2022-09-15T09:54:37.993Z,101325.44
2022-09-15T09:57:30.007Z,101325.38
2022-09-15T09:59:57.653Z,101333.31
2022-09-15T10:02:28.494Z,101340.75
2022-09-15T10:05:20.010Z,101336.94
2022-09-15T10:07:49.573Z,101327.00
2022-09-15T10:10:33.049Z,101329.69
2022-09-15T10:13:05.533Z,101343.00
2022-09-15T10:15:43.733Z,101336.22
2022-09-15T10:18:34.693Z,101339.50
2022-09-15T10:21:08.726Z,101333.88
2022-09-15T10:23:39.753Z,101340.47
2022-09-15T10:26:23.174Z,101342.00
2022-09-15T10:29:17.315Z,101333.88
2022-09-15T10:31:46.253Z,101336.44
2022-09-15T10:34:29.127Z,101326.03
2022-09-15T10:37:37.438Z,101336.88
2022-09-15T10:40:28.192Z,101333.75
2022-09-15T10:43:22.957Z,101336.63
2022-09-15T10:46:08.206Z,101333.94
2022-09-15T10:48:44.118Z,101334.78
2022-09-15T10:51:34.728Z,101321.09
2022-09-15T10:54:09.666Z,101336.78
2022-09-15T10:56:42.800Z,101334.00
2022-09-15T10:59:33.820Z,101334.59
2022-09-15T20:40:18.490Z,101345.78
2022-09-15T20:42:50.869Z,101318.03
2022-09-15T20:45:18.713Z,101325.56
2022-09-15T20:47:46.677Z,101337.88
2022-09-15T20:50:17.775Z,101326.66
2022-09-15T20:52:47.117Z,101328.22
2022-09-15T20:55:15.231Z,101338.25
2022-09-15T20:57:43.218Z,101322.25
2022-09-15T21:00:12.137Z,101332.63
2022-09-15T21:02:41.461Z,101342.69
2022-09-15T21:05:10.052Z,101351.53
2022-09-15T21:07:45.200Z,101338.88
2022-09-15T21:10:13.384Z,101336.00
2022-09-15T21:12:41.237Z,101348.06
2022-09-15T21:15:11.118Z,101356.16
2022-09-15T21:17:40.357Z,101348.75
2022-09-15T21:20:14.382Z,101334.75
2022-09-15T21:22:42.589Z,101349.25
2022-09-15T21:25:10.895Z,101350.59
2022-09-15T21:27:40.049Z,101349.41
2022-09-15T21:30:08.621Z,101351.84
2022-09-15T21:32:36.474Z,101366.69
2022-09-15T21:35:07.092Z,101359.69
2022-09-15T21:37:35.395Z,101369.97
2022-09-15T21:40:05.466Z,101358.16
2022-09-15T21:42:33.916Z,101364.31
2022-09-15T21:45:02.573Z,101359.44
2022-09-15T21:47:35.381Z,101372.34
2022-09-15T21:50:05.044Z,101355.47
2022-09-15T21:52:36.304Z,101359.44
2022-09-15T21:55:06.596Z,101357.41
2022-09-15T21:57:50.097Z,101354.28
2022-09-15T22:00:23.991Z,101351.06
2022-09-15T22:02:52.837Z,101350.47
2022-09-15T22:05:23.443Z,101354.09
2022-09-15T22:10:42.065Z,101351.56
2022-09-15T22:13:16.101Z,101335.50
2022-09-15T22:15:45.500Z,101339.53
2022-09-15T22:18:14.828Z,101349.56
2022-09-15T22:20:44.736Z,101349.22
2022-09-15T22:23:14.557Z,101335.09
2022-09-15T22:25:42.659Z,101339.25
2022-09-15T22:28:10.644Z,101335.53
2022-09-15T22:30:40.587Z,101340.84
2022-09-15T22:33:12.385Z,101339.75
2022-09-15T22:35:41.339Z,101342.66
2022-09-15T22:38:11.159Z,101337.50
2022-09-15T22:40:39.237Z,101333.19
2022-09-15T22:43:09.544Z,101336.19
2022-09-15T22:45:38.949Z,101340.91
2022-09-15T22:48:07.725Z,101337.41
2022-09-15T22:50:38.036Z,101339.09
2022-09-15T22:53:07.141Z,101337.34
2022-09-15T22:55:35.088Z,101330.47
2022-09-15T22:58:03.094Z,101332.88
2022-09-15T23:00:40.029Z,101339.19
2022-09-15T23:03:10.430Z,101324.06
2022-09-15T23:05:40.632Z,101339.63
2022-09-15T23:08:10.837Z,101331.31
2022-09-15T23:10:40.029Z,101340.13
2022-09-15T23:13:08.203Z,101331.53
2022-09-15T23:15:45.381Z,101337.47
2022-09-15T23:18:14.285Z,101342.16
2022-09-15T23:20:44.421Z,101324.81
2022-09-15T23:23:14.721Z,101337.09
2022-09-15T23:25:45.872Z,101349.91
2022-09-15T23:28:16.514Z,101345.94
2022-09-15T23:30:45.777Z,101328.06
2022-09-15T23:33:13.673Z,101342.91
2022-09-15T23:35:41.808Z,101323.25
2022-09-15T23:38:10.667Z,101322.66
2022-09-15T23:40:38.311Z,101329.06
2022-09-15T23:43:08.293Z,101336.63
2022-09-15T23:45:44.722Z,101323.50
2022-09-15T23:48:13.087Z,101324.81
2022-09-15T23:50:40.922Z,101326.75
2022-09-15T23:53:08.821Z,101307.94
2022-09-15T23:55:38.864Z,101305.53
2022-09-15T23:58:14.867Z,101309.38
